Time;durP1;ratioP1;P1;durP2;ratioP2;P2;SDS_P1;SDS_P2;PMS_P1;PMS_P2;Temp;Humidity;BMP_temperature;BMP_pressure;BME280_temperature;BME280_humidity;BME280_pressure;Samples;Min_cycle;Max_cycle;Signal;HPM_P1;HPM_P2
2022/09/09 00:01:12;;;;;;;10.65;2.63;;;21.50;92.00;;;;;;6276495;22;20073;-69
2022/09/09 00:03:51;;;;;;;11.27;2.53;;;21.50;91.90;;;;;;6276181;22;20003;-68
2022/09/09 00:06:57;;;;;;;10.23;2.97;;;21.50;91.80;;;;;;6276910;22;20008;-69
2022/09/09 00:09:27;;;;;;;10.30;2.90;;;21.50;91.80;;;;;;6275449;22;20016;-68
2022/09/09 00:12:04;;;;;;;9.43;2.58;;;21.40;91.80;;;;;;6275053;22;20087;-69
2022/09/09 00:15:00;;;;;;;11.45;2.80;;;21.40;91.80;;;;;;6274067;22;20067;-69
2022/09/09 00:17:39;;;;;;;10.63;2.78;;;21.40;91.80;;;;;;6275260;22;20011;-68
2022/09/09 00:20:23;;;;;;;11.98;3.20;;;21.40;91.90;;;;;;6276299;22;20074;-69
2022/09/09 00:23:12;;;;;;;14.27;3.10;;;21.40;91.90;;;;;;6276346;22;20414;-68
2022/09/09 00:25:50;;;;;;;13.00;3.25;;;21.40;91.90;;;;;;6277013;22;20000;-68
2022/09/09 00:28:19;;;;;;;9.13;3.60;;;21.40;92.00;;;;;;6276347;22;20336;-69
2022/09/09 00:30:49;;;;;;;10.05;3.40;;;21.40;92.00;;;;;;6276441;22;20175;-68
2022/09/09 00:33:18;;;;;;;9.20;3.30;;;21.40;92.00;;;;;;6276302;22;20010;-68
2022/09/09 00:35:54;;;;;;;8.68;2.97;;;21.40;92.00;;;;;;6276461;22;20334;-68
2022/09/09 00:38:32;;;;;;;10.80;3.22;;;21.40;92.00;;;;;;6276928;22;20004;-69
2022/09/09 00:41:05;;;;;;;11.82;3.17;;;21.40;92.00;;;;;;6276404;22;20010;-68
2022/09/09 00:43:33;;;;;;;8.82;3.03;;;21.40;92.00;;;;;;6276668;22;20010;-69
2022/09/09 00:46:14;;;;;;;14.50;3.20;;;21.40;92.00;;;;;;6276472;22;20000;-69
2022/09/09 00:49:05;;;;;;;8.05;3.38;;;21.40;92.00;;;;;;6276277;22;20430;-68
2022/09/09 00:51:50;;;;;;;7.05;2.70;;;21.40;92.20;;;;;;6276301;22;20387;-68
2022/09/09 00:54:57;;;;;;;12.32;3.72;;;21.40;91.80;;;;;;6276462;22;20326;-69
2022/09/09 00:57:28;;;;;;;7.45;2.42;;;21.40;91.70;;;;;;6256498;22;20079;-68
2022/09/09 01:00:27;;;;;;;6.80;2.05;;;21.40;91.50;;;;;;6276303;22;20106;-71
2022/09/09 01:03:27;;;;;;;5.05;2.53;;;21.40;91.30;;;;;;6275963;22;20430;-70
2022/09/09 01:06:12;;;;;;;8.15;2.08;;;21.40;91.10;;;;;;6276590;22;20296;-69
2022/09/09 01:09:06;;;;;;;9.90;2.72;;;21.40;90.90;;;;;;6276021;22;20003;-68
2022/09/09 01:12:10;;;;;;;6.97;2.05;;;21.40;90.80;;;;;;6276129;22;20012;-68
2022/09/09 01:14:40;;;;;;;5.68;2.10;;;21.40;90.60;;;;;;6276539;22;20016;-70
2022/09/09 01:17:18;;;;;;;6.15;1.80;;;21.40;90.50;;;;;;6276469;22;20107;-69
2022/09/09 01:19:56;;;;;;;4.57;2.03;;;21.40;90.40;;;;;;6276260;22;20075;-69
2022/09/09 01:22:54;;;;;;;4.82;1.83;;;21.40;90.30;;;;;;6276090;22;20011;-69
2022/09/09 01:25:57;;;;;;;6.90;2.28;;;21.40;90.10;;;;;;6246869;22;20338;-69
2022/09/09 01:28:27;;;;;;;9.25;2.72;;;21.40;90.10;;;;;;6276145;22;20311;-69
2022/09/09 01:30:56;;;;;;;6.30;2.40;;;21.40;90.10;;;;;;6276235;22;20405;-71
2022/09/09 01:33:22;;;;;;;8.63;2.10;;;21.40;90.10;;;;;;6276060;22;20025;-69
2022/09/09 01:35:56;;;;;;;5.00;2.17;;;21.30;90.10;;;;;;6276286;22;20050;-69
2022/09/09 01:38:23;;;;;;;7.20;2.20;;;21.30;90.00;;;;;;6276016;22;19999;-69
2022/09/09 01:40:52;;;;;;;7.97;2.25;;;21.30;90.00;;;;;;6275711;22;20091;-69
2022/09/09 01:43:22;;;;;;;8.40;2.03;;;21.30;90.00;;;;;;6276817;22;20078;-69
2022/09/09 01:45:51;;;;;;;6.15;2.65;;;21.30;90.00;;;;;;6278221;22;20008;-68
2022/09/09 01:48:18;;;;;;;8.88;3.25;;;21.30;90.00;;;;;;6278091;22;20004;-69
2022/09/09 01:50:44;;;;;;;9.85;2.50;;;21.30;90.10;;;;;;6277906;22;20011;-69
2022/09/09 01:53:11;;;;;;;8.05;2.80;;;21.30;90.10;;;;;;6277699;22;20446;-69
2022/09/09 01:55:44;;;;;;;8.30;2.88;;;21.30;90.10;;;;;;6277918;22;20082;-69
2022/09/09 01:58:43;;;;;;;8.02;2.65;;;21.40;90.20;;;;;;6278116;22;19995;-69
2022/09/09 02:01:41;;;;;;;9.30;2.72;;;21.30;90.20;;;;;;6277794;22;20456;-69
2022/09/09 02:04:27;;;;;;;7.03;2.58;;;21.40;90.20;;;;;;6267364;22;20011;-68
2022/09/09 02:06:56;;;;;;;9.10;2.90;;;21.40;90.20;;;;;;6200395;22;20003;-69
2022/09/09 02:09:24;;;;;;;8.40;2.97;;;21.30;90.20;;;;;;6277545;22;20011;-69
2022/09/09 02:11:58;;;;;;;6.57;2.47;;;21.40;90.20;;;;;;6277968;22;20426;-69
2022/09/09 02:14:34;;;;;;;8.38;2.60;;;21.30;90.10;;;;;;6277426;22;20492;-69
2022/09/09 02:17:08;;;;;;;12.75;2.60;;;21.40;90.10;;;;;;6277532;22;20024;-68
2022/09/09 02:19:39;;;;;;;12.05;2.60;;;21.30;90.10;;;;;;6277374;22;20434;-69
2022/09/09 02:22:05;;;;;;;8.25;2.10;;;21.30;90.00;;;;;;6277780;22;20075;-69
2022/09/09 02:24:35;;;;;;;7.30;2.38;;;21.30;90.00;;;;;;6277746;22;20003;-69
2022/09/09 02:27:04;;;;;;;6.00;2.20;;;21.30;89.90;;;;;;6278055;22;20370;-68
2022/09/09 02:29:42;;;;;;;4.30;2.00;;;21.30;89.80;;;;;;6277911;22;20018;-68
2022/09/09 02:32:14;;;;;;;5.93;2.28;;;21.30;89.80;;;;;;6277625;22;20054;-69
2022/09/09 02:34:42;;;;;;;;;;;21.30;89.70;;;;;;6278089;22;20004;-69
2022/09/09 02:37:10;;;;;;;6.85;2.50;;;21.30;89.60;;;;;;6277518;22;19906;-69
2022/09/09 02:39:36;;;;;;;7.63;2.30;;;21.30;89.70;;;;;;6277286;22;20007;-68
2022/09/09 02:42:04;;;;;;;4.75;2.30;;;21.30;89.70;;;;;;6277397;22;20071;-69
2022/09/09 02:44:30;;;;;;;6.25;2.55;;;21.30;89.70;;;;;;6277454;22;20000;-69
2022/09/09 02:47:07;;;;;;;11.73;2.60;;;21.30;89.80;;;;;;6277638;22;20319;-69
2022/09/09 02:50:08;;;;;;;8.02;2.50;;;21.30;89.80;;;;;;6277040;22;20012;-68
2022/09/09 02:52:42;;;;;;;6.93;2.70;;;21.20;89.80;;;;;;6277694;22;20330;-69
2022/09/09 02:55:18;;;;;;;6.35;2.08;;;21.30;89.80;;;;;;6276831;22;20004;-69
2022/09/09 02:57:47;;;;;;;9.57;2.25;;;21.20;89.80;;;;;;6277288;22;19996;-69
2022/09/09 03:00:13;;;;;;;6.53;2.58;;;21.20;89.80;;;;;;6277353;22;20022;-69
2022/09/09 03:02:39;;;;;;;7.38;2.10;;;21.20;89.90;;;;;;6277053;22;19999;-69
2022/09/09 03:05:06;;;;;;;6.57;2.80;;;21.20;90.00;;;;;;6276921;22;20337;-69
2022/09/09 03:07:32;;;;;;;4.25;2.42;;;21.20;90.00;;;;;;6277209;22;20007;-69
2022/09/09 03:09:58;;;;;;;5.43;2.33;;;21.20;90.00;;;;;;6277271;22;20012;-69
2022/09/09 03:12:24;;;;;;;8.80;2.63;;;21.20;90.00;;;;;;6277038;22;19999;-68
2022/09/09 03:14:49;;;;;;;6.60;2.58;;;21.20;90.00;;;;;;6277028;22;20003;-68
2022/09/09 03:17:16;;;;;;;7.78;3.10;;;21.20;90.10;;;;;;6276848;22;19996;-69
2022/09/09 03:19:42;;;;;;;7.07;2.55;;;21.20;90.10;;;;;;6276957;22;20004;-68
2022/09/09 03:22:11;;;;;;;9.05;2.45;;;21.20;90.10;;;;;;6276982;22;20438;-69
2022/09/09 03:24:37;;;;;;;8.82;2.75;;;21.20;90.40;;;;;;6277096;22;20061;-69
2022/09/09 03:27:02;;;;;;;8.65;2.42;;;21.20;90.00;;;;;;6277018;22;20000;-69
2022/09/09 03:29:28;;;;;;;6.32;2.35;;;21.20;90.00;;;;;;6276949;22;20304;-68
2022/09/09 03:31:54;;;;;;;5.68;2.15;;;21.20;90.00;;;;;;6277364;22;20000;-69
2022/09/09 03:34:19;;;;;;;7.07;2.40;;;21.10;89.90;;;;;;6277290;22;20011;-69
2022/09/09 03:36:46;;;;;;;8.50;3.03;;;21.10;89.90;;;;;;6276806;22;20010;-69
2022/09/09 03:39:11;;;;;;;8.10;2.55;;;21.20;89.90;;;;;;6277113;22;20007;-71
2022/09/09 03:41:37;;;;;;;8.50;2.47;;;21.10;89.80;;;;;;6276852;22;20071;-68
2022/09/09 03:44:03;;;;;;;6.20;2.55;;;21.10;89.90;;;;;;6276900;22;20000;-69
2022/09/09 03:46:28;;;;;;;10.55;2.92;;;21.10;89.90;;;;;;6276770;22;20006;-69
2022/09/09 03:48:54;;;;;;;7.70;2.42;;;21.10;89.80;;;;;;6276763;22;20411;-69
2022/09/09 03:51:21;;;;;;;7.22;2.42;;;21.10;89.80;;;;;;6276712;22;20039;-68
2022/09/09 03:53:47;;;;;;;5.00;2.60;;;21.10;89.70;;;;;;6276534;22;20003;-69
2022/09/09 03:56:13;;;;;;;6.50;2.33;;;21.10;89.70;;;;;;6276415;22;20030;-69
2022/09/09 03:58:39;;;;;;;6.22;2.63;;;21.00;89.60;;;;;;6276586;22;20422;-69
2022/09/09 04:01:09;;;;;;;6.95;2.28;;;21.00;89.60;;;;;;6276534;22;20022;-69
2022/09/09 04:03:35;;;;;;;8.65;2.97;;;21.00;89.70;;;;;;6276767;22;20003;-68
2022/09/09 04:06:03;;;;;;;8.32;2.47;;;21.00;89.70;;;;;;6276098;22;20000;-69
2022/09/09 04:08:32;;;;;;;7.20;2.40;;;21.00;89.70;;;;;;6276143;22;20083;-69
2022/09/09 04:11:00;;;;;;;4.60;2.10;;;21.00;89.70;;;;;;6276544;22;20018;-69
2022/09/09 04:13:26;;;;;;;9.73;2.88;;;21.00;89.70;;;;;;6276725;22;20004;-69
2022/09/09 04:15:57;;;;;;;8.70;2.28;;;20.90;89.70;;;;;;6276489;22;20014;-69
2022/09/09 04:18:24;;;;;;;5.13;2.38;;;21.00;89.90;;;;;;6276384;22;20000;-69
2022/09/09 04:20:51;;;;;;;8.38;2.58;;;21.00;90.00;;;;;;6276559;22;20010;-68
2022/09/09 04:23:20;;;;;;;8.63;2.40;;;21.00;90.00;;;;;;6276770;22;20000;-68
2022/09/09 04:25:47;;;;;;;6.97;2.42;;;21.00;90.00;;;;;;6276509;22;20026;-68
2022/09/09 04:28:14;;;;;;;9.50;2.45;;;21.00;90.00;;;;;;6276722;22;19999;-71
2022/09/09 04:30:41;;;;;;;8.00;2.83;;;21.00;90.00;;;;;;6276242;22;20011;-69
2022/09/09 04:33:07;;;;;;;5.65;2.20;;;21.00;90.00;;;;;;6276416;22;20381;-69
2022/09/09 04:35:33;;;;;;;7.30;2.53;;;21.00;90.00;;;;;;6276337;22;20010;-69
2022/09/09 04:37:59;;;;;;;4.43;2.50;;;21.00;89.90;;;;;;6276157;22;20422;-69
2022/09/09 04:40:25;;;;;;;7.85;2.55;;;21.00;89.90;;;;;;6276342;22;20022;-68
2022/09/09 04:42:51;;;;;;;7.95;2.35;;;21.00;89.90;;;;;;6275896;22;20027;-68
2022/09/09 04:45:16;;;;;;;7.45;2.10;;;21.00;90.00;;;;;;6276118;22;20000;-68
2022/09/09 04:47:42;;;;;;;6.60;2.30;;;21.00;89.80;;;;;;6276178;22;20074;-68
2022/09/09 04:50:08;;;;;;;5.97;2.47;;;21.00;89.80;;;;;;6276496;22;20033;-68
2022/09/09 04:52:37;;;;;;;3.25;2.20;;;21.00;89.60;;;;;;6276619;22;20003;-69
2022/09/09 04:55:03;;;;;;;7.57;2.67;;;21.00;89.20;;;;;;6277077;22;20000;-68
2022/09/09 04:57:31;;;;;;;4.22;2.42;;;21.10;88.70;;;;;;6276024;22;20035;-68
2022/09/09 04:59:58;;;;;;;5.35;2.38;;;21.20;88.60;;;;;;6276068;22;20042;-68
2022/09/09 05:02:23;;;;;;;4.85;2.22;;;21.20;88.40;;;;;;6275787;22;19995;-68
2022/09/09 05:04:49;;;;;;;8.23;2.53;;;21.20;88.20;;;;;;6275965;22;20004;-68
2022/09/09 05:07:15;;;;;;;7.32;2.92;;;21.30;88.10;;;;;;6275653;22;20075;-68
2022/09/09 05:09:41;;;;;;;5.15;2.30;;;21.20;88.00;;;;;;6275408;22;20008;-68
2022/09/09 05:12:08;;;;;;;7.35;2.30;;;21.30;87.80;;;;;;6275371;22;20318;-68
2022/09/09 05:14:36;;;;;;;2.65;1.90;;;21.30;87.40;;;;;;6276057;22;20373;-68
2022/09/09 05:17:02;;;;;;;11.90;2.65;;;21.40;87.20;;;;;;6275464;22;19996;-68
2022/09/09 05:19:27;;;;;;;6.30;2.75;;;21.40;87.10;;;;;;6277080;22;19999;-69
2022/09/09 05:21:53;;;;;;;8.80;2.80;;;21.40;86.80;;;;;;6277201;22;20000;-70
2022/09/09 05:24:19;;;;;;;6.00;2.20;;;21.40;86.80;;;;;;6277955;22;20038;-69
2022/09/09 05:26:44;;;;;;;5.72;2.53;;;21.40;86.70;;;;;;6278398;22;20004;-69
2022/09/09 05:29:10;;;;;;;4.78;2.60;;;21.50;87.00;;;;;;6276152;22;20039;-68
2022/09/09 05:31:36;;;;;;;5.45;2.40;;;21.40;87.60;;;;;;6277296;22;20466;-68
2022/09/09 05:34:02;;;;;;;4.47;2.70;;;21.40;87.20;;;;;;6277161;22;20008;-68
2022/09/09 05:36:28;;;;;;;4.45;2.72;;;21.50;87.20;;;;;;6277558;22;20000;-67
2022/09/09 05:38:53;;;;;;;6.40;2.83;;;21.50;87.10;;;;;;6276596;22;19995;-69
2022/09/09 05:41:19;;;;;;;8.55;2.83;;;21.50;87.10;;;;;;6276462;22;20385;-68
2022/09/09 05:43:48;;;;;;;5.80;2.58;;;21.50;87.30;;;;;;6276639;22;20007;-69
2022/09/09 05:46:16;;;;;;;6.18;2.78;;;21.50;87.40;;;;;;6276532;22;20322;-68
2022/09/09 05:48:43;;;;;;;6.97;3.42;;;21.50;87.60;;;;;;6276171;22;20494;-67
2022/09/09 05:51:17;;;;;;;5.32;2.75;;;21.60;87.60;;;;;;6276914;22;20067;-69
2022/09/09 05:53:44;;;;;;;3.70;2.42;;;21.60;87.80;;;;;;6277120;22;20002;-68
2022/09/09 05:56:15;;;;;;;5.05;2.80;;;21.70;86.60;;;;;;6276788;22;20115;-69
2022/09/09 05:58:44;;;;;;;5.90;2.47;;;21.70;86.50;;;;;;6276760;22;19999;-68
2022/09/09 06:01:16;;;;;;;4.63;2.40;;;21.80;86.00;;;;;;6276948;22;20031;-68
2022/09/09 06:03:43;;;;;;;5.20;2.83;;;21.80;85.80;;;;;;6277545;22;19996;-70
2022/09/09 06:06:12;;;;;;;7.13;2.53;;;21.80;85.80;;;;;;6277289;22;20433;-70
2022/09/09 06:08:40;;;;;;;6.72;2.50;;;21.80;85.80;;;;;;6276719;22;20023;-68
2022/09/09 06:11:08;;;;;;;7.18;2.75;;;21.90;85.60;;;;;;6276280;22;20053;-69
2022/09/09 06:13:36;;;;;;;8.93;2.88;;;21.80;85.50;;;;;;6277596;22;20034;-67
2022/09/09 06:16:04;;;;;;;7.78;2.80;;;21.80;86.70;;;;;;6277515;22;20010;-68
2022/09/09 06:18:29;;;;;;;7.65;3.28;;;21.80;86.80;;;;;;6276972;22;20023;-68
2022/09/09 06:21:04;;;;;;;8.15;2.83;;;21.80;88.20;;;;;;6277312;22;20326;-69
2022/09/09 06:23:31;;;;;;;9.25;3.05;;;21.70;89.00;;;;;;6276708;22;20053;-69
2022/09/09 06:26:11;;;;;;;6.95;3.10;;;21.70;89.70;;;;;;6276799;22;20390;-71
2022/09/09 06:28:37;;;;;;;11.07;3.30;;;21.70;90.10;;;;;;6277285;22;19999;-68
2022/09/09 06:31:05;;;;;;;20.55;3.40;;;21.60;90.30;;;;;;6277536;22;20018;-72
2022/09/09 06:33:41;;;;;;;5.63;2.90;;;21.60;90.60;;;;;;6277614;22;20003;-70
2022/09/09 06:36:18;;;;;;;11.48;3.05;;;21.60;90.80;;;;;;6278017;22;20016;-72
2022/09/09 06:38:45;;;;;;;11.00;2.80;;;21.60;91.10;;;;;;6277430;22;20094;-73
2022/09/09 06:41:13;;;;;;;5.35;3.05;;;21.60;91.10;;;;;;6277834;22;20011;-74
2022/09/09 06:43:39;;;;;;;148.32;11.90;;;21.60;91.10;;;;;;6277290;22;20000;-71
2022/09/09 06:46:07;;;;;;;11.80;3.33;;;21.60;91.20;;;;;;6277265;22;20003;-72
2022/09/09 06:48:34;;;;;;;8.35;3.38;;;21.60;91.30;;;;;;6277329;22;20010;-69
2022/09/09 06:51:21;;;;;;;9.68;4.10;;;21.60;91.50;;;;;;6276178;22;20012;-68
2022/09/09 06:53:49;;;;;;;5.00;2.80;;;21.60;91.50;;;;;;6277603;22;20393;-68
2022/09/09 06:56:28;;;;;;;7.25;2.80;;;21.50;91.60;;;;;;6277005;22;20003;-71
2022/09/09 06:58:55;;;;;;;14.35;2.88;;;21.50;91.70;;;;;;6276790;22;20371;-68
2022/09/09 07:01:30;;;;;;;7.95;2.80;;;21.50;91.70;;;;;;6276698;22;20019;-68
2022/09/09 07:03:58;;;;;;;8.38;3.10;;;21.50;91.70;;;;;;6277223;22;20065;-67
2022/09/09 07:06:27;;;;;;;7.35;3.00;;;21.50;91.70;;;;;;6277164;22;20087;-68
2022/09/09 07:08:57;;;;;;;61.05;7.43;;;21.50;91.80;;;;;;6276815;22;20006;-72
2022/09/09 07:11:28;;;;;;;11.65;3.80;;;21.50;91.80;;;;;;6277227;22;20012;-68
2022/09/09 07:13:56;;;;;;;7.15;2.70;;;21.50;91.70;;;;;;6277089;22;20058;-68
2022/09/09 07:16:25;;;;;;;5.30;2.60;;;21.50;91.70;;;;;;6276658;22;20007;-68
2022/09/09 07:18:52;;;;;;;755.00;91.63;;;21.40;91.60;;;;;;6276663;22;20000;-69
2022/09/09 07:21:20;;;;;;;385.52;40.47;;;21.50;91.60;;;;;;6276892;22;20000;-68
2022/09/09 07:23:46;;;;;;;29.13;4.93;;;21.40;91.60;;;;;;6277019;22;20000;-68
2022/09/09 07:26:19;;;;;;;12.50;2.78;;;21.50;91.70;;;;;;6276919;22;20007;-68
2022/09/09 07:28:45;;;;;;;9.13;2.70;;;21.50;91.30;;;;;;6277216;22;19996;-68
2022/09/09 07:31:22;;;;;;;14.18;3.95;;;21.50;91.10;;;;;;6277164;22;20036;-72
2022/09/09 07:33:48;;;;;;;130.15;11.98;;;21.50;91.10;;;;;;6276778;22;20006;-67
2022/09/09 07:36:15;;;;;;;400.45;53.22;;;21.50;91.10;;;;;;6277170;22;20039;-68
2022/09/09 07:38:46;;;;;;;12.82;3.88;;;21.50;90.70;;;;;;6276815;22;20004;-68
2022/09/09 07:41:17;;;;;;;1270.50;183.05;;;21.50;90.60;;;;;;6276859;22;20003;-70
2022/09/09 07:43:45;;;;;;;8.07;3.50;;;21.50;90.50;;;;;;6276754;22;20155;-69
2022/09/09 07:46:12;;;;;;;10.13;2.88;;;21.50;90.60;;;;;;6276974;22;20012;-68
2022/09/09 07:48:43;;;;;;;20.35;4.18;;;21.50;90.70;;;;;;6277258;22;20007;-68
2022/09/09 07:51:12;;;;;;;26.45;4.40;;;21.50;90.80;;;;;;6276723;22;20043;-68
2022/09/09 07:53:40;;;;;;;55.90;6.03;;;21.40;91.00;;;;;;6276770;22;19999;-68
2022/09/09 07:56:12;;;;;;;313.83;38.83;;;21.40;91.20;;;;;;6276782;22;20003;-70
2022/09/09 07:58:39;;;;;;;27.45;6.45;;;21.40;91.30;;;;;;6277074;22;19999;-68
2022/09/09 08:01:19;;;;;;;41.00;7.88;;;21.40;91.50;;;;;;6276675;22;20454;-68
2022/09/09 08:03:47;;;;;;;19.92;4.07;;;21.40;91.40;;;;;;6276487;22;20004;-68
2022/09/09 08:06:13;;;;;;;40.67;5.38;;;21.40;91.50;;;;;;6276431;22;20070;-72
2022/09/09 08:08:41;;;;;;;68.25;7.53;;;21.40;91.60;;;;;;6276611;22;19999;-68
2022/09/09 08:11:10;;;;;;;8.18;2.90;;;21.40;91.70;;;;;;6276734;22;20004;-71
2022/09/09 08:13:37;;;;;;;10.15;3.03;;;21.40;91.80;;;;;;6276226;22;20430;-69
2022/09/09 08:16:10;;;;;;;24.77;3.20;;;21.40;91.80;;;;;;6276874;22;20018;-68
2022/09/09 08:18:36;;;;;;;21.17;3.97;;;21.40;91.70;;;;;;6276829;22;20070;-69
2022/09/09 08:21:12;;;;;;;10.75;3.05;;;21.40;91.80;;;;;;6276633;22;19996;-68
2022/09/09 08:23:41;;;;;;;8.20;2.70;;;21.40;91.80;;;;;;6276405;22;20118;-68
2022/09/09 08:26:10;;;;;;;6.80;2.83;;;21.40;91.80;;;;;;6276855;22;20015;-68
2022/09/09 08:28:37;;;;;;;7.20;2.50;;;21.40;91.90;;;;;;6276398;22;20016;-69
2022/09/09 08:31:24;;;;;;;5.38;2.80;;;21.40;92.00;;;;;;6276939;22;20008;-69
2022/09/09 08:33:50;;;;;;;10.48;2.92;;;21.50;92.00;;;;;;6276540;22;20078;-72
2022/09/09 08:36:21;;;;;;;7.53;3.00;;;21.50;92.00;;;;;;6276148;22;20434;-69
2022/09/09 08:38:54;;;;;;;7.03;3.00;;;21.40;92.00;;;;;;6276487;22;20050;-70
2022/09/09 08:41:29;;;;;;;5.45;2.60;;;21.40;92.10;;;;;;6276939;22;20378;-71
2022/09/09 08:44:20;;;;;;;7.43;2.70;;;21.40;92.10;;;;;;6276780;22;20027;-69
2022/09/09 08:46:51;;;;;;;16.20;3.38;;;21.30;92.00;;;;;;6276531;22;20302;-69
2022/09/09 08:49:23;;;;;;;8.50;2.90;;;21.30;92.20;;;;;;6276603;22;20012;-67
2022/09/09 08:51:50;;;;;;;71.75;5.28;;;21.30;92.40;;;;;;6276210;22;20010;-69
2022/09/09 08:54:16;;;;;;;97.88;7.35;;;21.30;92.60;;;;;;6276618;22;20430;-69
2022/09/09 08:56:44;;;;;;;62.88;6.18;;;21.30;92.40;;;;;;6275861;22;20008;-71
2022/09/09 08:59:14;;;;;;;28.35;3.85;;;21.30;92.40;;;;;;6275540;22;20004;-68
2022/09/09 09:02:10;;;;;;;18.10;3.50;;;21.30;92.50;;;;;;6275561;22;20391;-72
2022/09/09 09:05:07;;;;;;;16.17;3.70;;;21.20;92.50;;;;;;6276029;22;20078;-70
2022/09/09 09:07:42;;;;;;;14.75;3.55;;;21.20;92.60;;;;;;6275700;22;20054;-70
2022/09/09 09:10:13;;;;;;;20.75;3.83;;;21.20;92.70;;;;;;6275431;22;20448;-71
2022/09/09 09:12:42;;;;;;;11.45;3.45;;;21.20;92.90;;;;;;6276269;22;20000;-69
2022/09/09 09:15:19;;;;;;;10.73;3.55;;;21.10;92.80;;;;;;6276368;22;20031;-70
2022/09/09 09:17:45;;;;;;;11.70;3.28;;;21.10;92.90;;;;;;6276258;22;20003;-68
2022/09/09 09:20:16;;;;;;;21.65;4.15;;;21.10;92.80;;;;;;6275579;22;20012;-70
2022/09/09 09:22:50;;;;;;;18.15;3.95;;;21.10;92.90;;;;;;6274272;22;20046;-69
2022/09/09 09:25:21;;;;;;;9.38;3.15;;;21.10;92.90;;;;;;6275928;22;20000;-71
2022/09/09 09:28:12;;;;;;;8.30;3.60;;;21.10;93.00;;;;;;6275814;22;20065;-69
2022/09/09 09:30:48;;;;;;;7.03;3.53;;;21.10;93.20;;;;;;6275540;22;20499;-71
2022/09/09 09:33:23;;;;;;;11.23;3.03;;;21.20;93.40;;;;;;6275690;22;20075;-71
2022/09/09 09:35:50;;;;;;;25.30;3.30;;;21.10;93.40;;;;;;6275661;22;20007;-70
2022/09/09 09:38:19;;;;;;;12.48;3.22;;;21.20;93.50;;;;;;6275983;22;20391;-69
2022/09/09 09:41:00;;;;;;;3.42;2.30;;;21.20;93.50;;;;;;6275936;22;20015;-70
2022/09/09 09:43:37;;;;;;;169.98;11.65;;;21.20;93.70;;;;;;6275537;22;20074;-71
2022/09/09 09:46:19;;;;;;;24.58;3.75;;;21.20;93.50;;;;;;6275907;22;20038;-70
2022/09/09 09:48:55;;;;;;;38.28;3.65;;;21.20;93.40;;;;;;6275605;22;20079;-71
2022/09/09 09:51:23;;;;;;;26.98;2.75;;;21.20;93.10;;;;;;6275856;22;20003;-68
2022/09/09 09:53:49;;;;;;;17.35;2.50;;;21.20;93.20;;;;;;6275579;22;20422;-68
2022/09/09 09:56:16;;;;;;;42.83;4.38;;;21.20;93.10;;;;;;6275956;22;20011;-71
2022/09/09 09:58:44;;;;;;;129.40;10.65;;;21.10;93.00;;;;;;6275630;22;20048;-69
2022/09/09 10:01:27;;;;;;;9.32;2.65;;;21.20;92.90;;;;;;6275740;22;20466;-69
2022/09/09 10:04:15;;;;;;;4.95;2.20;;;21.20;92.80;;;;;;6275757;22;20075;-70
2022/09/09 10:06:42;;;;;;;7.35;2.60;;;21.10;92.40;;;;;;6276569;22;19995;-69
2022/09/09 10:09:22;;;;;;;6.82;2.45;;;21.00;92.80;;;;;;6277098;22;20343;-72
2022/09/09 10:12:04;;;;;;;10.25;2.63;;;21.00;93.10;;;;;;6277502;22;19999;-69
2022/09/09 10:14:56;;;;;;;9.30;2.63;;;21.00;93.30;;;;;;6278089;22;20369;-72
2022/09/09 10:17:54;;;;;;;9.48;2.72;;;21.00;93.50;;;;;;6277753;22;20138;-72
2022/09/09 10:20:54;;;;;;;8.05;2.70;;;21.00;93.80;;;;;;6277868;22;20003;-69
2022/09/09 10:23:57;;;;;;;6.20;2.80;;;21.10;93.90;;;;;;6277444;22;20004;-69
2022/09/09 10:26:37;;;;;;;7.28;2.90;;;21.20;93.80;;;;;;6277238;22;20004;-69
2022/09/09 10:29:24;;;;;;;6.80;2.25;;;21.20;94.00;;;;;;6277452;22;20054;-70
2022/09/09 10:32:02;;;;;;;7.22;2.45;;;21.30;94.10;;;;;;6277765;22;20008;-69
2022/09/09 10:34:46;;;;;;;8.38;2.13;;;21.30;93.90;;;;;;6277429;22;20003;-70
2022/09/09 10:37:38;;;;;;;7.40;2.20;;;21.30;93.90;;;;;;6277532;22;20011;-72
2022/09/09 10:40:21;;;;;;;;;;;21.40;93.70;;;;;;6278157;22;20003;-70
2022/09/09 10:42:47;;;;;;;6.32;1.70;;;21.40;93.70;;;;;;6277226;22;19978;-70
2022/09/09 10:45:42;;;;;;;6.53;2.20;;;21.50;94.00;;;;;;6276901;22;20043;-72
2022/09/09 10:48:16;;;;;;;4.70;1.60;;;21.70;94.10;;;;;;6200168;22;20397;-70
2022/09/09 10:50:50;;;;;;;15.85;1.83;;;21.90;94.00;;;;;;6277319;22;20012;-70
2022/09/09 10:53:33;;;;;;;4.35;1.77;;;22.00;93.90;;;;;;6277453;22;19999;-70
2022/09/09 10:56:09;;;;;;;5.07;1.80;;;22.20;93.80;;;;;;6276448;22;20000;-71
2022/09/09 10:58:48;;;;;;;6.63;1.90;;;22.40;93.60;;;;;;6277004;22;20023;-70
2022/09/09 11:01:24;;;;;;;3.88;1.40;;;22.60;93.30;;;;;;6277076;22;20019;-72
2022/09/09 11:03:56;;;;;;;3.40;1.42;;;22.80;92.70;;;;;;6277248;22;20000;-70
2022/09/09 11:06:35;;;;;;;5.15;1.33;;;22.90;92.30;;;;;;6276919;22;20091;-68
2022/09/09 11:09:04;;;;;;;4.00;1.42;;;23.00;92.20;;;;;;6276395;22;20091;-69
2022/09/09 11:11:53;;;;;;;5.07;1.70;;;23.10;91.90;;;;;;6276858;22;20024;-68
2022/09/09 11:14:31;;;;;;;2.95;1.30;;;23.10;91.80;;;;;;6277428;22;20004;-69
2022/09/09 11:17:09;;;;;;;2.83;1.40;;;23.20;91.70;;;;;;6276645;22;20034;-69
2022/09/09 11:19:37;;;;;;;4.43;1.63;;;23.20;91.40;;;;;;6277157;22;20338;-69
2022/09/09 11:22:06;;;;;;;5.30;1.50;;;23.20;91.00;;;;;;6276726;22;20065;-70
2022/09/09 11:24:44;;;;;;;5.57;1.80;;;23.20;90.60;;;;;;6277369;22;20004;-68
2022/09/09 11:27:30;;;;;;;10.27;2.05;;;23.20;90.50;;;;;;6276541;22;20003;-71
2022/09/09 11:30:00;;;;;;;76.05;5.78;;;23.20;90.40;;;;;;6276747;22;20082;-68
2022/09/09 11:32:50;;;;;;;8.60;1.90;;;23.20;90.10;;;;;;6276551;22;19996;-69
2022/09/09 11:35:53;;;;;;;16.77;2.33;;;23.10;90.30;;;;;;6276583;22;20465;-69
2022/09/09 11:38:30;;;;;;;9.05;1.60;;;23.10;90.30;;;;;;6276880;22;20029;-68
2022/09/09 11:41:08;;;;;;;3.65;1.60;;;23.10;90.50;;;;;;6276752;22;20031;-69
2022/09/09 11:43:40;;;;;;;4.18;1.60;;;23.10;90.60;;;;;;6276723;22;20031;-68
2022/09/09 11:46:07;;;;;;;6.32;1.42;;;23.20;89.50;;;;;;6276594;22;20011;-68
2022/09/09 11:48:39;;;;;;;8.82;1.63;;;23.20;88.60;;;;;;6276415;22;20011;-68
2022/09/09 11:51:08;;;;;;;7.63;2.05;;;23.30;88.90;;;;;;6276482;22;20015;-68
2022/09/09 11:53:55;;;;;;;11.45;1.50;;;23.40;88.70;;;;;;6276215;22;20420;-69
2022/09/09 11:56:28;;;;;;;3.20;1.40;;;23.40;88.40;;;;;;6276459;22;20000;-67
2022/09/09 11:59:06;;;;;;;3.22;1.40;;;23.50;87.90;;;;;;6275577;22;19995;-68
2022/09/09 12:01:39;;;;;;;2.65;1.10;;;23.50;87.60;;;;;;6276073;22;20020;-67
2022/09/09 12:04:29;;;;;;;3.38;1.45;;;23.50;86.70;;;;;;6276217;22;20381;-67
2022/09/09 12:07:09;;;;;;;23.30;2.92;;;23.60;86.00;;;;;;6276155;22;19996;-68
2022/09/09 12:09:48;;;;;;;4.80;0.95;;;23.60;85.50;;;;;;6275715;22;20464;-68
2022/09/09 12:12:14;;;;;;;2.00;1.05;;;23.60;84.70;;;;;;6275276;22;20365;-68
2022/09/09 12:14:56;;;;;;;2.92;1.10;;;23.60;84.40;;;;;;6275440;22;20057;-68
2022/09/09 12:17:24;;;;;;;3.70;1.25;;;23.60;83.80;;;;;;6276105;22;19999;-68
2022/09/09 12:20:20;;;;;;;3.55;1.05;;;23.60;83.40;;;;;;6276138;22;20027;-69
2022/09/09 12:23:05;;;;;;;27.05;2.28;;;23.60;82.50;;;;;;6274448;22;20004;-67
2022/09/09 12:25:37;;;;;;;12.32;1.40;;;23.50;82.30;;;;;;6277236;22;20007;-68
2022/09/09 12:28:17;;;;;;;3.58;1.10;;;23.60;82.10;;;;;;6276284;22;20035;-71
2022/09/09 12:31:01;;;;;;;2.50;0.80;;;23.50;81.80;;;;;;6276302;22;20014;-68
2022/09/09 12:33:35;;;;;;;11.75;1.30;;;23.60;80.90;;;;;;6276351;22;20453;-69
2022/09/09 12:36:04;;;;;;;67.82;4.78;;;23.60;80.90;;;;;;6276574;22;20006;-68
2022/09/09 12:38:36;;;;;;;5.57;1.15;;;23.60;81.50;;;;;;6276188;22;20011;-70
2022/09/09 12:41:03;;;;;;;17.88;2.85;;;23.60;80.80;;;;;;6276299;22;20008;-69
2022/09/09 12:43:29;;;;;;;2.13;1.00;;;23.60;80.10;;;;;;6276643;22;20000;-68
2022/09/09 12:46:12;;;;;;;39.30;2.67;;;23.70;80.50;;;;;;6276344;22;20000;-69
2022/09/09 12:48:44;;;;;;;33.40;4.03;;;23.70;82.10;;;;;;6276390;22;19996;-69
2022/09/09 12:51:25;;;;;;;7.68;1.23;;;23.80;81.50;;;;;;6276245;22;20448;-68
2022/09/09 12:53:51;;;;;;;2.97;1.00;;;23.90;80.50;;;;;;6276250;22;20007;-68
2022/09/09 12:56:29;;;;;;;1.25;0.77;;;23.90;80.20;;;;;;6276129;22;20007;-68
2022/09/09 12:58:58;;;;;;;1.52;1.10;;;24.00;78.90;;;;;;6276858;22;20012;-68
2022/09/09 13:01:28;;;;;;;7.30;1.00;;;24.10;78.30;;;;;;6276321;22;20476;-68
2022/09/09 13:03:54;;;;;;;9.13;1.65;;;24.10;77.90;;;;;;6276492;22;20042;-72
2022/09/09 13:06:23;;;;;;;3.95;1.10;;;24.20;76.70;;;;;;6275717;22;20004;-69
2022/09/09 13:08:52;;;;;;;1.42;0.90;;;24.20;74.90;;;;;;6274242;22;20011;-69
2022/09/09 13:11:24;;;;;;;1.50;0.80;;;24.20;75.60;;;;;;6276430;22;20000;-71
2022/09/09 13:13:52;;;;;;;2.75;0.95;;;24.20;75.90;;;;;;6275588;22;20003;-69